Topeka, KS (66611)

01:08 PM CST die 28o November, anno 2014 (GMT -0600)
Knollwood | Change Station
CLOSE
Current Station
Personal Weather Stations
Location: Topeka, KS
Elevation: 978 ft
Nearby Weather Stations

Elev 978 ft 39.02 °N, 95.70 °W | Updated 13 minutes ago

Serena
Serena
58.8 °F
Feels Like 58.8 °F
N
5.1
Ventus Variabilis Ventus from Magis Eurus quam Aquilo

Hodie
High -- | Low -- °F
--% Chance of Precip.
Yesterday
High -- | Low -- °F
Precip. -- in
7:19 AM 5:01 PM
Waxing Crescent, 43% visible
Pressio 29.84 in
Visibilitas 10.0 milia passuum
Clouds Serena
Frigus in quo Ros apparet 35 °F
Umor 41%
Rainfall 0.00 in
Snow Depth Not available.
UV 3 out of 12
Pollen .10 out of 12
Air Quality Not available.
Flu Activity Not available.
METAR KFOE 281853Z 18013KT 10SM CLR 16/00 A2984 RMK AO2 SLP105 T01560000

More Conditions Fewer Conditions

Pressio 29.84 in
Visibilitas 10.0 milia passuum
Clouds Serena
Frigus in quo Ros apparet 35 °F
Umor 41%
Rainfall 0.00 in
Snow Depth Not available.
UV 3 out of 12
Pollen .10 out of 12
Air Quality Not available.
Flu Activity Not available.
METAR KFOE 281853Z 18013KT 10SM CLR 16/00 A2984 RMK AO2 SLP105 T01560000

More Conditions Fewer Conditions

10-Day Weather Forecast

Almanac

Astronomy

Nov. 28, 2014 Rise Set
Actual Time
Civil Twilight
Nautical Twilight
Astronomical Twilight
Moon
Length Of Visible Light
Length of Day
Tomorrow will be .
, % of the Moon is Illuminated

Today's Extremes

State Highs State Lows

Community

WunderPhotos

Upload Photos

1,774,261 photos uploaded!

WunderBlogs® & News

Nearby

Air Quality

  Air Quality AQ Index Pollutant
Not available.

Snow Depth

Station Depth Elevation

Earthquake Activity

City Distance Mag. Time & Date
Minimum magnitude displayed is 2.5.

Coastal Water Temperatures

Locus Calor

Nearby Weather Stations